Truro, Iowa
Current Conditions -  °F | °C
As of 4:35 PM on Friday 19 Dec 2014 (Local Time) from KI75 Reporting Station
Haze Haze  
Wind Chill: 29°   Ceiling: 1100
Heat Index: 33°   Visibility: 5mi
Dew Point: 31°   Wind: 5mph
Humidity: 90%   Direction: 150°SSE
Pressure: 30.2"   Gusts: NA
Location:  41.21°N, 93.85°W
Report Text: KI75 192235Z AUTO 15004KT 5SM BR OVC011 01/M01 A3020 RMK AO2 T00061008
Loading
Personal Weather Stations






























Interactive Weather Map New forecast layout! Learn more

10-Day Weather Forecast

Advertisements
Track Severe Weather on mobile